Terminal Aerodrome Forecast
Issued by NWS Memphis, TN

Current Version | Previous Version | Text Only | Print | Product List | Glossary On
Versions: 1 2 3 4 5 6 7 8 9 10 11 12 13 14 15 16 17 18 19 20 21 22 23 24 25 26 27 28 29 30 31 32
000
FTUS44 KMEG 240858 AAA
TAFMEM
TAF AMD
KMEM 240858Z 2409/2506 19011KT P6SM SKC WS020/19060KT
     FM241300 20016G24KT P6SM FEW035 SCT250
     FM242000 24012KT P6SM VCSH BKN040
     FM250200 31012G19KT P6SM SCT035 BKN120=

USA.gov is the U.S. government's official web portal to all federal, state and local government web resources and services.